Time;durP1;ratioP1;P1;durP2;ratioP2;P2;SDS_P1;SDS_P2;PMS_P1;PMS_P2;Temp;Humidity;BMP_temperature;BMP_pressure;BME280_temperature;BME280_humidity;BME280_pressure;Samples;Min_cycle;Max_cycle;Signal;HPM_P1;HPM_P2
2023/07/23 00:02:04;;;;;;;16.95;3.65;;;44.10;36.80;;;;;;5067238;28;20024;-60
2023/07/23 00:04:30;;;;;;;8.20;2.58;;;44.10;37.00;;;;;;5068135;28;20028;-60
2023/07/23 00:06:57;;;;;;;10.02;2.92;;;44.10;35.90;;;;;;5068136;28;20097;-61
2023/07/23 00:09:23;;;;;;;18.48;3.08;;;44.10;35.80;;;;;;5067067;28;20115;-59
2023/07/23 00:11:50;;;;;;;18.13;3.22;;;44.00;35.90;;;;;;5066440;28;21561;-61
2023/07/23 00:14:16;;;;;;;19.83;3.30;;;43.90;35.60;;;;;;5067188;28;20024;-61
2023/07/23 00:16:43;;;;;;;16.85;2.97;;;43.80;36.30;;;;;;5065306;28;20126;-58
2023/07/23 00:19:13;;;;;;;8.65;2.40;;;43.70;36.00;;;;;;5058621;28;20371;-60
2023/07/23 00:21:39;;;;;;;16.67;2.80;;;43.70;36.40;;;;;;5067338;28;20501;-61
2023/07/23 00:24:05;;;;;;;18.27;3.50;;;43.60;35.20;;;;;;5067175;28;20039;-59
2023/07/23 00:26:32;;;;;;;13.88;2.85;;;43.60;34.90;;;;;;5067990;28;20021;-59
2023/07/23 00:28:58;;;;;;;10.32;2.58;;;43.60;36.20;;;;;;5066560;28;20028;-59
2023/07/23 00:31:25;;;;;;;14.73;2.90;;;43.60;35.80;;;;;;5066235;28;20158;-60
2023/07/23 00:33:51;;;;;;;10.90;2.58;;;43.60;35.10;;;;;;5068462;28;20386;-58
2023/07/23 00:36:17;;;;;;;7.00;2.17;;;43.50;34.00;;;;;;5066843;28;20115;-54
2023/07/23 00:38:44;;;;;;;8.52;2.45;;;43.40;33.70;;;;;;5067209;28;20047;-57
2023/07/23 00:41:10;;;;;;;8.10;1.90;;;43.40;32.90;;;;;;5066171;28;20024;-59
2023/07/23 00:43:37;;;;;;;12.20;1.90;;;43.40;31.20;;;;;;5067639;28;20031;-59
2023/07/23 00:46:03;;;;;;;8.50;2.17;;;43.30;31.10;;;;;;5066758;28;20020;-60
2023/07/23 00:48:30;;;;;;;6.70;1.98;;;43.30;30.60;;;;;;5066975;28;20017;-57
2023/07/23 00:50:56;;;;;;;8.93;2.38;;;43.30;30.70;;;;;;5070875;28;20016;-60
2023/07/23 00:53:25;;;;;;;69.88;5.57;;;43.30;30.50;;;;;;5067338;28;20028;-56
2023/07/23 00:55:53;;;;;;;234.48;16.95;;;43.30;30.80;;;;;;5064522;28;20099;-58
2023/07/23 00:58:21;;;;;;;235.70;16.02;;;43.30;32.00;;;;;;5065080;28;20036;-57
2023/07/23 01:00:47;;;;;;;18.35;3.10;;;43.20;32.30;;;;;;5066447;28;20012;-56
2023/07/23 01:03:14;;;;;;;16.48;2.85;;;43.20;32.90;;;;;;5066671;28;20013;-61
2023/07/23 01:08:34;;;;;;;14.80;2.50;;;43.20;31.30;;;;;;5759842;22;21670;-56
2023/07/23 01:11:02;;;;;;;5.63;2.28;;;43.10;31.30;;;;;;5042961;28;20037;-59
2023/07/23 01:13:29;;;;;;;10.18;2.08;;;43.00;31.80;;;;;;5047095;28;20033;-59
2023/07/23 01:15:56;;;;;;;6.47;1.90;;;43.00;32.80;;;;;;5046798;28;20021;-59
2023/07/23 01:18:23;;;;;;;7.10;2.28;;;42.90;31.90;;;;;;5045935;28;20037;-59
2023/07/23 01:20:50;;;;;;;8.02;2.13;;;42.90;32.40;;;;;;5047378;28;20040;-59
2023/07/23 01:23:16;;;;;;;5.82;1.95;;;42.80;33.30;;;;;;5046315;28;20021;-59
2023/07/23 01:25:43;;;;;;;8.43;2.50;;;42.70;33.50;;;;;;5046083;28;20013;-55
2023/07/23 01:28:09;;;;;;;11.35;2.47;;;42.70;34.00;;;;;;5052102;28;20025;-58
2023/07/23 01:30:36;;;;;;;9.73;1.98;;;42.60;35.00;;;;;;5046957;28;20017;-60
2023/07/23 01:33:04;;;;;;;9.80;2.67;;;42.60;34.70;;;;;;5049951;28;20036;-58
2023/07/23 01:35:30;;;;;;;9.98;1.92;;;42.50;34.90;;;;;;5046585;28;20024;-59
2023/07/23 01:37:59;;;;;;;7.78;2.22;;;42.40;34.90;;;;;;5046812;28;20017;-54
2023/07/23 01:40:25;;;;;;;14.15;2.03;;;42.40;34.30;;;;;;5045914;28;20522;-56
2023/07/23 01:42:52;;;;;;;8.73;2.45;;;42.30;34.70;;;;;;5028130;28;20067;-57
2023/07/23 01:45:18;;;;;;;12.43;2.28;;;42.30;35.20;;;;;;5046457;28;20051;-58
2023/07/23 01:47:45;;;;;;;12.55;2.58;;;42.30;35.20;;;;;;5049724;28;20474;-60
2023/07/23 01:50:11;;;;;;;12.13;3.53;;;42.40;36.00;;;;;;5047975;28;20382;-59
2023/07/23 01:52:37;;;;;;;13.30;4.00;;;42.50;37.80;;;;;;5057429;28;20024;-59
2023/07/23 01:55:04;;;;;;;14.77;4.38;;;42.80;38.60;;;;;;5048409;28;20029;-61
2023/07/23 01:57:31;;;;;;;14.27;3.47;;;43.20;38.00;;;;;;5049262;28;20066;-56
2023/07/23 01:59:57;;;;;;;10.10;2.95;;;43.40;37.70;;;;;;5049691;28;20447;-60
2023/07/23 02:02:24;;;;;;;18.00;3.30;;;43.30;37.70;;;;;;5050894;28;20100;-54
2023/07/23 02:04:50;;;;;;;16.55;3.25;;;43.10;38.40;;;;;;5056342;28;20335;-58
2023/07/23 02:07:17;;;;;;;22.23;3.92;;;43.00;38.20;;;;;;5058433;28;20100;-59
2023/07/23 02:09:43;;;;;;;14.48;3.83;;;43.00;38.70;;;;;;5048485;28;20040;-59
2023/07/23 02:12:10;;;;;;;17.65;3.72;;;42.70;39.10;;;;;;5056692;28;20028;-58
2023/07/23 02:14:36;;;;;;;21.85;3.95;;;42.40;39.30;;;;;;5054315;28;20432;-59
2023/07/23 02:17:03;;;;;;;20.73;3.80;;;42.10;39.50;;;;;;5051494;28;20013;-58
2023/07/23 02:19:30;;;;;;;14.05;3.95;;;41.90;40.50;;;;;;5051536;28;20094;-57
2023/07/23 02:21:56;;;;;;;17.13;3.55;;;41.70;40.10;;;;;;5048222;28;20013;-55
2023/07/23 02:24:22;;;;;;;17.88;3.80;;;41.50;40.70;;;;;;5049274;28;20122;-59
2023/07/23 02:26:49;;;;;;;16.33;3.55;;;41.30;40.70;;;;;;5055995;28;20013;-60
2023/07/23 02:29:15;;;;;;;18.88;4.18;;;41.20;41.20;;;;;;5054561;28;20020;-58
2023/07/23 02:31:42;;;;;;;10.90;3.25;;;41.10;40.60;;;;;;5054204;28;20036;-59
2023/07/23 02:34:08;;;;;;;18.00;4.10;;;40.90;41.00;;;;;;5053917;28;20032;-59
2023/07/23 02:36:35;;;;;;;20.92;4.72;;;40.80;40.90;;;;;;5050480;28;20021;-53
2023/07/23 02:39:02;;;;;;;18.10;4.20;;;40.80;41.40;;;;;;5050330;28;20094;-56
2023/07/23 02:41:29;;;;;;;14.48;4.28;;;40.60;41.40;;;;;;5051324;28;20024;-58
2023/07/23 02:43:55;;;;;;;11.25;3.60;;;40.60;41.90;;;;;;5052272;28;20013;-59
2023/07/23 02:46:22;;;;;;;12.52;3.22;;;40.50;42.10;;;;;;5049180;28;20028;-58
2023/07/23 02:48:48;;;;;;;19.92;3.92;;;40.40;42.10;;;;;;5051808;28;20028;-62
2023/07/23 02:51:14;;;;;;;24.20;4.55;;;40.30;42.00;;;;;;5049196;28;20066;-59
2023/07/23 02:53:41;;;;;;;15.57;3.78;;;40.20;42.50;;;;;;5050216;28;20039;-54
2023/07/23 02:56:07;;;;;;;25.98;4.07;;;40.10;42.50;;;;;;5031661;28;20462;-60
2023/07/23 02:58:33;;;;;;;13.60;3.95;;;40.10;42.70;;;;;;5049422;28;20021;-56
2023/07/23 03:01:00;;;;;;;23.80;4.28;;;40.00;42.60;;;;;;5051831;28;20009;-57
2023/07/23 03:03:26;;;;;;;15.38;5.28;;;39.90;42.60;;;;;;5051220;28;20102;-55
2023/07/23 03:05:53;;;;;;;21.10;5.78;;;39.80;42.90;;;;;;5055076;28;20617;-57
2023/07/23 03:08:20;;;;;;;24.98;6.50;;;39.70;42.80;;;;;;5048565;28;20040;-58
2023/07/23 03:10:47;;;;;;;12.18;5.97;;;39.70;43.00;;;;;;5047506;28;20112;-58
2023/07/23 03:13:13;;;;;;;24.50;6.55;;;39.60;43.00;;;;;;5048290;28;20005;-56
2023/07/23 03:15:40;;;;;;;18.15;5.90;;;39.60;44.10;;;;;;5048727;28;20027;-59
2023/07/23 03:18:06;;;;;;;19.75;4.32;;;39.50;43.40;;;;;;5049237;28;20009;-54
2023/07/23 03:20:32;;;;;;;22.98;4.65;;;39.40;43.20;;;;;;5049527;28;20025;-60
2023/07/23 03:22:59;;;;;;;19.92;4.32;;;39.30;43.30;;;;;;5049433;28;20017;-58
2023/07/23 03:25:25;;;;;;;17.52;4.75;;;39.30;43.50;;;;;;5061383;28;21362;-58
2023/07/23 03:27:52;;;;;;;24.58;6.10;;;39.20;43.30;;;;;;5054858;28;20024;-58
2023/07/23 03:30:18;;;;;;;25.98;7.18;;;39.20;43.70;;;;;;5054229;28;20017;-58
2023/07/23 03:32:45;;;;;;;30.98;9.45;;;39.20;43.60;;;;;;5052759;28;20021;-60
2023/07/23 03:35:11;;;;;;;28.83;10.68;;;39.10;43.70;;;;;;5051258;28;20036;-59
2023/07/23 03:37:37;;;;;;;45.35;12.45;;;39.10;44.10;;;;;;5047708;28;20044;-59
2023/07/23 03:40:04;;;;;;;50.83;17.35;;;39.00;44.00;;;;;;5051958;28;20470;-58
2023/07/23 03:42:31;;;;;;;33.22;11.25;;;39.00;43.80;;;;;;5051355;28;20028;-59
2023/07/23 03:44:57;;;;;;;27.58;5.72;;;38.90;43.90;;;;;;5049987;28;20098;-57
2023/07/23 03:47:24;;;;;;;17.58;4.25;;;38.90;43.20;;;;;;5048058;28;20463;-58
2023/07/23 03:49:50;;;;;;;23.52;4.35;;;38.90;43.30;;;;;;5048239;28;20009;-57
2023/07/23 03:52:17;;;;;;;16.42;4.25;;;38.90;43.40;;;;;;5051247;28;20029;-57
2023/07/23 03:54:43;;;;;;;16.45;3.72;;;38.80;43.20;;;;;;5046323;28;20040;-57
2023/07/23 03:57:10;;;;;;;31.75;4.85;;;38.80;43.30;;;;;;5047273;28;20092;-58
2023/07/23 03:59:38;;;;;;;28.83;4.55;;;38.70;43.70;;;;;;5051675;28;20013;-54
2023/07/23 04:02:06;;;;;;;28.05;4.55;;;38.70;43.80;;;;;;5054909;28;20540;-59
2023/07/23 04:04:36;;;;;;;25.90;4.90;;;38.70;44.70;;;;;;5047466;28;20021;-57
2023/07/23 04:07:04;;;;;;;34.05;5.60;;;38.60;44.50;;;;;;5053452;28;20040;-60
2023/07/23 04:09:31;;;;;;;24.83;6.75;;;38.60;44.50;;;;;;5045408;28;20044;-54
2023/07/23 04:11:58;;;;;;;24.25;5.97;;;38.60;44.60;;;;;;5049198;28;20016;-57
2023/07/23 04:14:25;;;;;;;30.33;5.28;;;38.50;45.00;;;;;;5047360;28;20043;-55
2023/07/23 04:16:53;;;;;;;24.00;5.05;;;38.50;45.30;;;;;;5048880;28;20035;-57
2023/07/23 04:19:20;;;;;;;32.13;5.03;;;38.50;45.70;;;;;;5048236;28;20036;-57
2023/07/23 04:21:46;;;;;;;27.67;4.90;;;38.50;46.00;;;;;;5046708;28;20031;-58
2023/07/23 04:24:13;;;;;;;28.55;5.28;;;38.50;45.90;;;;;;5051237;28;20021;-54
2023/07/23 04:26:40;;;;;;;28.70;5.68;;;38.50;46.20;;;;;;5051423;28;20060;-60
2023/07/23 04:29:08;;;;;;;27.02;4.70;;;38.50;46.40;;;;;;5049645;28;20047;-56
2023/07/23 04:31:34;;;;;;;33.70;5.32;;;38.40;46.60;;;;;;5048514;28;20021;-54
2023/07/23 04:34:01;;;;;;;36.80;6.45;;;38.50;46.40;;;;;;5047015;28;20102;-55
2023/07/23 04:36:28;;;;;;;37.95;6.60;;;38.40;46.30;;;;;;5047107;28;20048;-53
2023/07/23 04:38:54;;;;;;;31.77;6.32;;;38.40;46.10;;;;;;5049936;28;20534;-57
2023/07/23 04:41:21;;;;;;;36.25;6.07;;;38.40;46.10;;;;;;5048578;28;20025;-53
2023/07/23 04:43:47;;;;;;;30.83;5.45;;;38.40;46.10;;;;;;5048405;28;20053;-56
2023/07/23 04:46:14;;;;;;;29.67;5.38;;;38.40;46.20;;;;;;5045731;28;20520;-60
2023/07/23 04:48:40;;;;;;;32.00;5.22;;;38.30;46.20;;;;;;5046946;28;20570;-57
2023/07/23 04:51:08;;;;;;;31.85;4.72;;;38.30;46.30;;;;;;5050824;28;20096;-54
2023/07/23 04:53:35;;;;;;;28.67;5.72;;;38.30;46.40;;;;;;5047710;28;20130;-55
2023/07/23 04:56:03;;;;;;;52.08;6.57;;;38.20;46.60;;;;;;5049047;28;20110;-54
2023/07/23 04:58:30;;;;;;;28.02;5.55;;;38.20;46.70;;;;;;5045758;28;21328;-56
2023/07/23 05:01:01;;;;;;;33.40;5.50;;;38.20;46.80;;;;;;5046243;28;20670;-54
2023/07/23 05:03:27;;;;;;;34.88;6.18;;;38.10;47.00;;;;;;5047357;28;20054;-56
2023/07/23 05:05:54;;;;;;;35.72;5.55;;;38.10;47.10;;;;;;5050154;28;20048;-52
2023/07/23 05:08:22;;;;;;;31.17;5.47;;;38.10;47.30;;;;;;5039291;28;20110;-57
2023/07/23 05:10:48;;;;;;;30.98;4.72;;;38.00;47.50;;;;;;5047115;28;20198;-57
2023/07/23 05:13:15;;;;;;;30.92;5.78;;;37.90;47.60;;;;;;5047404;28;20048;-57
2023/07/23 05:15:42;;;;;;;22.00;4.57;;;37.90;47.70;;;;;;5046002;28;20533;-58
2023/07/23 05:18:08;;;;;;;46.53;5.97;;;37.90;47.80;;;;;;5046049;28;20013;-54
2023/07/23 05:20:35;;;;;;;40.53;5.97;;;37.90;47.90;;;;;;5047410;28;20128;-62
2023/07/23 05:23:01;;;;;;;38.65;5.80;;;37.80;48.00;;;;;;5047957;28;20191;-56
2023/07/23 05:25:28;;;;;;;34.08;5.90;;;37.70;48.10;;;;;;5054207;28;20042;-59
2023/07/23 05:27:54;;;;;;;35.33;6.53;;;37.70;48.40;;;;;;5047488;28;20056;-58
2023/07/23 05:30:21;;;;;;;25.95;5.65;;;37.70;48.60;;;;;;5048900;28;20024;-57
2023/07/23 05:32:48;;;;;;;22.23;4.13;;;37.60;48.80;;;;;;5044381;28;20137;-58
2023/07/23 05:35:14;;;;;;;24.75;4.40;;;37.60;48.90;;;;;;5045147;28;20528;-57
2023/07/23 05:37:41;;;;;;;22.13;4.45;;;37.60;48.90;;;;;;5047876;28;20411;-57
2023/07/23 05:40:08;;;;;;;33.10;4.75;;;37.60;49.00;;;;;;5049631;28;20096;-58
2023/07/23 05:42:34;;;;;;;34.65;5.05;;;37.60;49.00;;;;;;5052961;28;20040;-54
2023/07/23 05:45:01;;;;;;;22.98;4.93;;;37.50;49.00;;;;;;5051989;28;20385;-63
2023/07/23 05:47:27;;;;;;;32.75;4.60;;;37.50;49.10;;;;;;5050381;28;20061;-57
2023/07/23 05:49:53;;;;;;;38.50;5.93;;;37.40;49.10;;;;;;5047034;28;20138;-58
2023/07/23 05:52:20;;;;;;;29.58;5.22;;;37.40;49.10;;;;;;5046482;28;20050;-59
2023/07/23 05:54:46;;;;;;;33.50;4.80;;;37.40;49.10;;;;;;5049720;28;20051;-58
2023/07/23 05:57:14;;;;;;;30.10;4.20;;;37.40;48.90;;;;;;5051315;28;20130;-56
2023/07/23 05:59:40;;;;;;;30.60;5.28;;;37.40;48.80;;;;;;5047808;28;20039;-61
2023/07/23 06:02:06;;;;;;;24.27;5.22;;;37.30;48.90;;;;;;5051052;28;20039;-54
2023/07/23 06:04:33;;;;;;;26.08;4.60;;;37.30;48.70;;;;;;5049289;28;20051;-56
2023/07/23 06:06:59;;;;;;;29.48;5.15;;;37.30;48.70;;;;;;5046943;28;20463;-55
2023/07/23 06:09:26;;;;;;;37.95;5.00;;;37.30;48.60;;;;;;5048350;28;20067;-57
2023/07/23 06:11:53;;;;;;;34.15;5.45;;;37.20;48.90;;;;;;5029559;28;20135;-56
2023/07/23 06:14:20;;;;;;;29.80;6.85;;;37.20;49.00;;;;;;5043197;28;20071;-57
2023/07/23 06:16:46;;;;;;;33.67;7.40;;;37.20;49.00;;;;;;5041267;28;20044;-55
2023/07/23 06:19:12;;;;;;;33.42;7.15;;;37.20;49.00;;;;;;5045495;28;20038;-54
2023/07/23 06:21:39;;;;;;;17.45;4.57;;;37.10;49.00;;;;;;5048707;28;20046;-59
2023/07/23 06:24:05;;;;;;;30.10;4.20;;;37.10;49.00;;;;;;5042565;28;20116;-55
2023/07/23 06:26:32;;;;;;;25.83;4.55;;;37.10;49.10;;;;;;5047699;28;20043;-58
2023/07/23 06:28:58;;;;;;;26.55;4.50;;;37.00;49.40;;;;;;5046967;28;20054;-55
2023/07/23 06:31:25;;;;;;;19.17;3.97;;;37.00;49.80;;;;;;5042765;28;20132;-60
2023/07/23 06:33:51;;;;;;;19.75;3.97;;;37.00;50.30;;;;;;5045753;28;20417;-59
2023/07/23 06:36:17;;;;;;;23.48;4.32;;;36.90;50.70;;;;;;5043903;28;20088;-56
2023/07/23 06:38:45;;;;;;;14.68;3.40;;;36.80;50.80;;;;;;5047733;28;20056;-59
2023/07/23 06:41:11;;;;;;;15.50;3.72;;;36.80;51.20;;;;;;5051883;28;20033;-57
2023/07/23 06:43:37;;;;;;;18.40;3.83;;;36.80;51.40;;;;;;5053008;28;21499;-56
2023/07/23 06:46:04;;;;;;;16.42;4.07;;;36.70;51.50;;;;;;5051407;28;20053;-56
2023/07/23 06:48:30;;;;;;;19.25;3.72;;;36.60;51.60;;;;;;5049246;28;20180;-55
2023/07/23 06:50:57;;;;;;;15.88;3.50;;;36.60;51.90;;;;;;5051541;28;20049;-56
2023/07/23 06:53:24;;;;;;;19.60;4.20;;;36.60;51.90;;;;;;5049814;28;20132;-58
2023/07/23 06:56:05;;;;;;;19.48;3.97;;;36.50;51.80;;;;;;5053119;28;20045;-56
2023/07/23 06:58:37;;;;;;;30.02;4.05;;;36.50;52.10;;;;;;5047667;28;20049;-55
2023/07/23 07:01:06;;;;;;;17.10;3.80;;;36.50;51.90;;;;;;5048070;28;20511;-54
2023/07/23 07:03:32;;;;;;;19.52;3.75;;;36.40;52.00;;;;;;5050955;28;20079;-55
2023/07/23 07:06:00;;;;;;;21.25;3.70;;;36.40;52.30;;;;;;5054828;28;20113;-53
2023/07/23 07:08:28;;;;;;;24.67;3.97;;;36.40;52.50;;;;;;5049182;28;20132;-57
2023/07/23 07:11:02;;;;;;;18.85;3.92;;;36.40;52.80;;;;;;5047836;28;20090;-57
2023/07/23 07:13:30;;;;;;;15.77;3.30;;;36.30;53.10;;;;;;5051838;28;20040;-53
2023/07/23 07:15:56;;;;;;;15.50;3.58;;;36.20;53.20;;;;;;5050147;28;20694;-60
2023/07/23 07:18:24;;;;;;;17.05;3.40;;;36.30;53.20;;;;;;5048243;28;20060;-56
2023/07/23 07:20:59;;;;;;;19.27;4.28;;;36.20;53.10;;;;;;5054630;28;20512;-55
2023/07/23 07:23:30;;;;;;;28.48;3.95;;;36.20;53.20;;;;;;5047442;28;20062;-57
2023/07/23 07:25:57;;;;;;;12.43;3.60;;;36.10;53.20;;;;;;5048760;28;20129;-59
2023/07/23 07:28:29;;;;;;;16.90;4.15;;;36.10;53.20;;;;;;5051017;28;20051;-57
2023/07/23 07:30:59;;;;;;;20.60;4.60;;;36.20;53.20;;;;;;5050598;28;20050;-58
2023/07/23 07:33:27;;;;;;;19.90;4.28;;;36.20;53.30;;;;;;5049109;28;20449;-58
2023/07/23 07:35:58;;;;;;;12.68;3.40;;;36.10;53.00;;;;;;5034626;28;20053;-57
2023/07/23 07:38:25;;;;;;;18.60;3.47;;;36.10;52.80;;;;;;5052765;28;20137;-55
2023/07/23 07:40:52;;;;;;;16.85;3.28;;;36.10;52.20;;;;;;5047552;28;20053;-56
2023/07/23 07:43:19;;;;;;;11.13;3.13;;;36.10;52.00;;;;;;5050147;28;20054;-54
2023/07/23 07:45:50;;;;;;;11.80;3.25;;;36.10;51.90;;;;;;5048634;28;20098;-57
2023/07/23 07:48:20;;;;;;;14.60;3.17;;;36.10;51.80;;;;;;5048764;28;20054;-56
2023/07/23 07:50:48;;;;;;;22.15;3.78;;;36.10;51.80;;;;;;5047602;28;20133;-58
2023/07/23 07:53:15;;;;;;;16.58;3.38;;;36.10;51.80;;;;;;5053042;28;20098;-55
2023/07/23 07:55:43;;;;;;;20.42;3.90;;;36.00;52.30;;;;;;5047542;28;20098;-59
2023/07/23 07:58:13;;;;;;;18.73;3.60;;;35.90;52.90;;;;;;5046126;28;20875;-56
2023/07/23 08:00:41;;;;;;;17.65;4.15;;;35.90;53.60;;;;;;5048910;28;20048;-55
2023/07/23 08:03:08;;;;;;;17.20;4.07;;;35.80;54.30;;;;;;5047397;28;20047;-61
2023/07/23 08:05:36;;;;;;;20.88;3.85;;;35.70;55.00;;;;;;5048899;28;20052;-57
2023/07/23 08:08:04;;;;;;;42.28;5.35;;;35.60;55.80;;;;;;5048629;28;20116;-59
2023/07/23 08:10:35;;;;;;;346.20;20.73;;;35.60;56.80;;;;;;5047557;28;20114;-56
2023/07/23 08:13:02;;;;;;;299.15;19.00;;;35.40;59.10;;;;;;5045907;28;20142;-54
2023/07/23 08:15:32;;;;;;;267.42;16.50;;;35.00;60.80;;;;;;5046519;28;20113;-54
2023/07/23 08:18:00;;;;;;;279.55;19.25;;;35.00;61.40;;;;;;5046283;28;20156;-53
2023/07/23 08:20:32;;;;;;;264.27;18.50;;;34.80;62.00;;;;;;5047582;28;20055;-57
2023/07/23 08:22:59;;;;;;;283.80;18.27;;;34.70;63.00;;;;;;5048018;28;20071;-59
2023/07/23 08:25:26;;;;;;;292.38;19.27;;;34.50;64.30;;;;;;5025171;28;20156;-55
2023/07/23 08:27:59;;;;;;;267.42;17.45;;;34.40;65.60;;;;;;5048376;28;20060;-56
2023/07/23 08:30:27;;;;;;;160.52;11.82;;;34.20;66.80;;;;;;5047356;28;20075;-53
2023/07/23 08:32:58;;;;;;;427.02;25.88;;;34.10;67.30;;;;;;5046387;28;20070;-59
2023/07/23 08:35:25;;;;;;;136.98;8.82;;;34.10;68.10;;;;;;5045953;28;20099;-51
2023/07/23 08:37:53;;;;;;;143.55;10.13;;;33.90;68.40;;;;;;5046865;28;20082;-61
2023/07/23 08:40:20;;;;;;;124.03;9.50;;;33.90;68.00;;;;;;5049532;28;20070;-56
2023/07/23 08:42:55;;;;;;;135.02;9.10;;;33.90;68.20;;;;;;5052355;28;20065;-54
2023/07/23 08:45:30;;;;;;;172.00;10.23;;;34.00;67.90;;;;;;5050188;28;20069;-58
2023/07/23 08:48:08;;;;;;;126.85;8.75;;;33.90;67.40;;;;;;5045928;28;20545;-56
2023/07/23 08:50:35;;;;;;;151.10;10.73;;;34.00;66.20;;;;;;5051400;28;20068;-53
2023/07/23 08:53:04;;;;;;;145.95;9.40;;;34.00;65.00;;;;;;5034105;28;20072;-56
2023/07/23 08:55:30;;;;;;;146.35;9.35;;;34.00;63.50;;;;;;5047225;28;20088;-54
2023/07/23 08:57:57;;;;;;;210.02;12.85;;;34.00;61.80;;;;;;5048077;28;20074;-57
2023/07/23 09:00:27;;;;;;;180.13;12.43;;;34.10;60.50;;;;;;5053127;28;20160;-59
2023/07/23 09:02:53;;;;;;;188.40;14.98;;;34.10;59.60;;;;;;5046757;28;20079;-55
2023/07/23 09:05:20;;;;;;;178.20;12.95;;;34.10;59.50;;;;;;5048326;28;20108;-55
2023/07/23 09:07:48;;;;;;;195.15;14.38;;;34.10;59.80;;;;;;5045862;28;20141;-50
2023/07/23 09:10:14;;;;;;;177.90;14.60;;;34.10;59.70;;;;;;5046649;28;20820;-55
2023/07/23 09:12:41;;;;;;;167.73;15.10;;;34.20;59.90;;;;;;5047411;28;20087;-57
2023/07/23 09:15:09;;;;;;;201.82;17.58;;;34.10;60.00;;;;;;5047086;28;20103;-53
2023/07/23 09:17:35;;;;;;;224.98;19.05;;;34.20;59.70;;;;;;5048165;28;20073;-53
2023/07/23 09:20:01;;;;;;;292.27;24.35;;;34.10;59.60;;;;;;5050690;28;20419;-53
2023/07/23 09:22:34;;;;;;;325.90;25.80;;;34.10;59.70;;;;;;5053632;28;20072;-52
2023/07/23 09:25:00;;;;;;;256.48;24.63;;;34.10;60.20;;;;;;5046834;28;20458;-51
2023/07/23 09:27:37;;;;;;;262.13;23.98;;;34.10;60.90;;;;;;5047074;28;20078;-52
2023/07/23 09:30:04;;;;;;;213.52;20.48;;;34.10;61.40;;;;;;5056267;28;20176;-51
2023/07/23 09:32:31;;;;;;;240.65;22.20;;;34.00;61.70;;;;;;5050596;28;20066;-49
2023/07/23 09:34:59;;;;;;;310.05;25.80;;;34.10;62.30;;;;;;5048742;28;20454;-52
2023/07/23 09:37:29;;;;;;;267.38;26.20;;;34.00;63.20;;;;;;5047639;28;20077;-55
2023/07/23 09:39:57;;;;;;;281.00;26.25;;;34.00;63.60;;;;;;5047375;28;20099;-57
2023/07/23 09:42:24;;;;;;;355.15;31.80;;;34.00;63.70;;;;;;5046730;28;20165;-54
2023/07/23 09:44:52;;;;;;;328.48;29.63;;;34.10;63.40;;;;;;5047172;28;20075;-52
2023/07/23 09:47:25;;;;;;;293.92;28.08;;;34.10;63.20;;;;;;5045385;28;20098;-53
2023/07/23 09:49:54;;;;;;;284.48;25.98;;;34.10;63.20;;;;;;5044860;28;20072;-50
2023/07/23 09:52:34;;;;;;;250.05;23.27;;;34.10;62.90;;;;;;5052433;28;20124;-52
2023/07/23 09:55:03;;;;;;;241.77;23.98;;;34.10;62.80;;;;;;5045352;28;20074;-54
2023/07/23 09:57:33;;;;;;;215.70;22.02;;;34.20;63.10;;;;;;5049152;28;20107;-56
2023/07/23 10:00:01;;;;;;;217.80;23.08;;;34.20;63.40;;;;;;5054794;28;20073;-60
2023/07/23 10:02:29;;;;;;;249.80;22.83;;;34.30;63.50;;;;;;5048575;28;20071;-61
2023/07/23 10:04:58;;;;;;;207.02;20.55;;;34.50;63.30;;;;;;5050582;28;20512;-59
2023/07/23 10:07:25;;;;;;;235.68;22.80;;;34.60;63.10;;;;;;5051358;28;20076;-61
2023/07/23 10:09:54;;;;;;;220.27;22.02;;;34.70;63.20;;;;;;5050296;28;20056;-59
2023/07/23 10:12:22;;;;;;;207.52;20.83;;;34.60;63.40;;;;;;5047679;28;20074;-57
2023/07/23 10:14:48;;;;;;;179.85;18.92;;;34.80;63.70;;;;;;5033843;28;20093;-55
2023/07/23 10:17:16;;;;;;;190.20;19.02;;;34.80;63.80;;;;;;5050900;28;20189;-59
2023/07/23 10:19:43;;;;;;;160.07;17.98;;;34.80;63.70;;;;;;5050834;28;20064;-55
2023/07/23 10:22:09;;;;;;;189.13;20.02;;;35.00;63.60;;;;;;5050044;28;20067;-61
2023/07/23 10:24:40;;;;;;;186.30;18.75;;;35.10;63.40;;;;;;5050542;28;20067;-58
2023/07/23 10:27:17;;;;;;;168.77;18.08;;;35.00;63.30;;;;;;5038510;28;20063;-60
2023/07/23 10:30:17;;;;;;;194.75;20.13;;;35.10;63.00;;;;;;5048972;28;20158;-61
2023/07/23 10:32:45;;;;;;;198.88;18.08;;;35.10;62.90;;;;;;5049568;28;20070;-58
2023/07/23 10:35:12;;;;;;;175.00;17.77;;;35.00;63.00;;;;;;5056182;28;20547;-59
2023/07/23 10:37:38;;;;;;;178.05;19.17;;;34.90;62.80;;;;;;5049342;28;20959;-60
2023/07/23 10:40:05;;;;;;;165.80;18.40;;;34.90;62.80;;;;;;5051076;28;20064;-59
2023/07/23 10:42:34;;;;;;;172.93;17.50;;;35.10;62.60;;;;;;5050460;28;20062;-57
2023/07/23 10:45:23;;;;;;;201.88;18.55;;;35.20;62.20;;;;;;5039085;28;20151;-62
2023/07/23 10:48:01;;;;;;;169.50;17.77;;;35.10;62.20;;;;;;5054655;28;20091;-59
2023/07/23 10:50:30;;;;;;;167.50;17.98;;;35.20;61.80;;;;;;5053459;28;20632;-60
2023/07/23 10:53:15;;;;;;;170.02;18.02;;;35.20;62.00;;;;;;5049478;28;20085;-60
2023/07/23 10:55:47;;;;;;;186.00;20.52;;;35.20;61.80;;;;;;5049163;28;20080;-59
2023/07/23 10:58:15;;;;;;;167.25;17.60;;;35.10;61.70;;;;;;5053128;28;20122;-59
2023/07/23 11:00:47;;;;;;;183.90;18.45;;;35.00;62.10;;;;;;5060384;28;20062;-61
2023/07/23 11:03:16;;;;;;;177.73;19.52;;;35.10;62.60;;;;;;5054088;28;20058;-59
2023/07/23 11:05:44;;;;;;;160.23;20.00;;;35.10;62.70;;;;;;5048936;28;20395;-58
2023/07/23 11:08:14;;;;;;;170.60;17.88;;;34.90;63.10;;;;;;5033365;28;20067;-61
2023/07/23 11:10:53;;;;;;;181.77;18.88;;;34.90;63.90;;;;;;5054488;28;20071;-59
2023/07/23 11:13:22;;;;;;;170.07;17.27;;;34.90;63.70;;;;;;5051429;28;20069;-62
2023/07/23 11:15:48;;;;;;;140.73;16.17;;;34.80;64.10;;;;;;5049481;28;20081;-59
2023/07/23 11:18:15;;;;;;;164.18;18.95;;;34.80;63.30;;;;;;5052286;28;20075;-58
2023/07/23 11:20:52;;;;;;;165.50;19.40;;;34.80;63.20;;;;;;5046877;28;20142;-58
2023/07/23 11:23:22;;;;;;;169.95;18.98;;;34.70;63.00;;;;;;5051850;28;20069;-58
2023/07/23 11:25:50;;;;;;;175.35;19.45;;;34.60;62.40;;;;;;5054190;28;20548;-60
2023/07/23 11:28:22;;;;;;;158.43;16.20;;;34.70;62.00;;;;;;5050445;28;20071;-60
2023/07/23 11:30:52;;;;;;;172.27;19.63;;;34.70;61.70;;;;;;5052079;28;20090;-58
2023/07/23 11:33:21;;;;;;;158.55;19.13;;;34.70;61.80;;;;;;5049245;28;20078;-58
2023/07/23 11:35:49;;;;;;;144.55;16.27;;;34.60;61.00;;;;;;5054073;28;20481;-59
2023/07/23 11:38:15;;;;;;;119.05;15.27;;;34.60;60.10;;;;;;5054500;28;20055;-57
2023/07/23 11:40:52;;;;;;;141.25;15.30;;;34.60;59.80;;;;;;5053607;28;20083;-59
2023/07/23 11:43:19;;;;;;;110.95;14.18;;;34.70;59.00;;;;;;5052774;28;20635;-60
2023/07/23 11:45:46;;;;;;;105.97;13.15;;;34.70;58.60;;;;;;5050267;28;21010;-59
2023/07/23 11:48:16;;;;;;;131.38;13.98;;;34.70;58.30;;;;;;5050999;28;20081;-59
2023/07/23 11:50:44;;;;;;;119.05;14.30;;;34.80;58.00;;;;;;5048408;28;20111;-59
2023/07/23 11:53:11;;;;;;;105.65;13.23;;;34.70;57.90;;;;;;5049802;28;20066;-59
2023/07/23 11:55:37;;;;;;;114.32;13.65;;;34.80;58.10;;;;;;5048852;28;20074;-59
2023/07/23 11:58:04;;;;;;;121.93;14.57;;;34.80;58.20;;;;;;5047655;28;20152;-60
2023/07/23 12:00:37;;;;;;;135.68;15.70;;;34.70;58.20;;;;;;5048453;28;20087;-59
2023/07/23 12:03:07;;;;;;;113.63;14.55;;;34.60;58.20;;;;;;5051792;28;20080;-56
2023/07/23 12:05:37;;;;;;;98.30;11.32;;;34.60;58.50;;;;;;5055209;28;20145;-57
2023/07/23 12:08:05;;;;;;;91.65;12.90;;;34.70;59.10;;;;;;5047550;28;20064;-56
2023/07/23 12:10:33;;;;;;;126.47;14.82;;;34.70;59.90;;;;;;5047312;28;20071;-55
2023/07/23 12:13:08;;;;;;;111.18;14.05;;;34.70;59.10;;;;;;5046779;28;20163;-59
2023/07/23 12:15:36;;;;;;;110.53;13.43;;;34.60;59.50;;;;;;5052377;28;20085;-60
2023/07/23 12:18:03;;;;;;;104.20;12.20;;;34.60;58.90;;;;;;5048661;28;20093;-59
2023/07/23 12:20:29;;;;;;;88.07;11.30;;;34.60;58.80;;;;;;5046975;28;20527;-65
2023/07/23 12:22:57;;;;;;;82.68;11.00;;;34.50;58.60;;;;;;5051686;28;20121;-59
2023/07/23 12:25:24;;;;;;;92.65;11.15;;;34.50;58.70;;;;;;5050534;28;20063;-56
2023/07/23 12:27:51;;;;;;;109.82;13.43;;;34.50;58.70;;;;;;5049633;28;20120;-59
2023/07/23 12:30:18;;;;;;;121.68;15.95;;;34.50;58.70;;;;;;5048184;28;20059;-56
2023/07/23 12:32:48;;;;;;;117.65;15.23;;;34.40;60.30;;;;;;5047686;28;20097;-60
2023/07/23 12:35:15;;;;;;;122.85;14.23;;;34.40;61.20;;;;;;5058598;28;20082;-57
2023/07/23 12:37:41;;;;;;;105.82;13.98;;;34.50;61.60;;;;;;5055219;28;20094;-60